Fulks Run, Virginia
Current Conditions -  °F | °C
As of 7:55 PM on Saturday 22 Nov 2014 (Local Time) from K8W2 Reporting Station
Clear Clear  
Wind Chill: 40°   Ceiling: Unl
Heat Index: 44°   Visibility: 10mi
Dew Point: 20°   Wind: 6mph
Humidity: 38%   Direction: 240°WSW
Pressure: 30.24"   Gusts: NA
Location:  38.66°N, 78.91°W
Report Text: K8W2 230055Z AUTO 24005KT 10SM CLR 06/M07 A3024 RMK AO1 T00641069
Loading
Personal Weather Stations






























Interactive Weather Map New forecast layout! Learn more

10-Day Weather Forecast

Advertisements
Track Severe Weather on mobile